sensor_id;sensor_type;location;lat;lon;timestamp;P1;durP1;ratioP1;P2;durP2;ratioP2
8252;SDS011;61313;48.396;10.008;2022-12-18T00:00:31;47.17;;;21.47;;
8252;SDS011;61313;48.396;10.008;2022-12-18T00:02:57;53.17;;;24.10;;
8252;SDS011;61313;48.396;10.008;2022-12-18T00:05:22;43.20;;;21.73;;
8252;SDS011;61313;48.396;10.008;2022-12-18T00:07:48;49.93;;;22.00;;
8252;SDS011;61313;48.396;10.008;2022-12-18T00:10:14;41.93;;;21.30;;
8252;SDS011;61313;48.396;10.008;2022-12-18T00:12:39;40.60;;;20.13;;
8252;SDS011;61313;48.396;10.008;2022-12-18T00:15:05;41.03;;;21.20;;
8252;SDS011;61313;48.396;10.008;2022-12-18T00:17:31;48.73;;;23.30;;
8252;SDS011;61313;48.396;10.008;2022-12-18T00:19:57;48.47;;;21.57;;
8252;SDS011;61313;48.396;10.008;2022-12-18T00:22:22;48.33;;;21.90;;
8252;SDS011;61313;48.396;10.008;2022-12-18T00:24:48;44.40;;;21.27;;
8252;SDS011;61313;48.396;10.008;2022-12-18T00:27:14;46.63;;;21.10;;
8252;SDS011;61313;48.396;10.008;2022-12-18T00:29:40;54.47;;;23.43;;
8252;SDS011;61313;48.396;10.008;2022-12-18T00:32:07;38.77;;;19.37;;
8252;SDS011;61313;48.396;10.008;2022-12-18T00:34:33;42.37;;;21.87;;
8252;SDS011;61313;48.396;10.008;2022-12-18T00:36:59;43.20;;;20.67;;
8252;SDS011;61313;48.396;10.008;2022-12-18T00:39:25;47.07;;;23.37;;
8252;SDS011;61313;48.396;10.008;2022-12-18T00:41:51;56.27;;;23.70;;
8252;SDS011;61313;48.396;10.008;2022-12-18T00:44:35;39.30;;;19.10;;
8252;SDS011;61313;48.396;10.008;2022-12-18T00:47:01;65.73;;;23.83;;
8252;SDS011;61313;48.396;10.008;2022-12-18T00:49:27;47.83;;;22.17;;
8252;SDS011;61313;48.396;10.008;2022-12-18T00:51:54;52.23;;;22.60;;
8252;SDS011;61313;48.396;10.008;2022-12-18T00:54:20;50.60;;;22.50;;
8252;SDS011;61313;48.396;10.008;2022-12-18T00:56:46;47.00;;;20.77;;
8252;SDS011;61313;48.396;10.008;2022-12-18T00:59:12;48.30;;;24.00;;
8252;SDS011;61313;48.396;10.008;2022-12-18T01:01:38;50.43;;;22.13;;
8252;SDS011;61313;48.396;10.008;2022-12-18T01:04:04;46.43;;;21.90;;
8252;SDS011;61313;48.396;10.008;2022-12-18T01:06:30;39.77;;;20.40;;
8252;SDS011;61313;48.396;10.008;2022-12-18T01:08:56;53.23;;;22.50;;
8252;SDS011;61313;48.396;10.008;2022-12-18T01:11:23;43.87;;;20.57;;
8252;SDS011;61313;48.396;10.008;2022-12-18T01:13:49;43.40;;;18.57;;
8252;SDS011;61313;48.396;10.008;2022-12-18T01:16:17;49.83;;;23.20;;
8252;SDS011;61313;48.396;10.008;2022-12-18T01:18:43;44.27;;;20.90;;
8252;SDS011;61313;48.396;10.008;2022-12-18T01:21:11;45.50;;;23.53;;
8252;SDS011;61313;48.396;10.008;2022-12-18T01:23:37;37.27;;;20.23;;
8252;SDS011;61313;48.396;10.008;2022-12-18T01:26:04;43.90;;;21.80;;
8252;SDS011;61313;48.396;10.008;2022-12-18T01:28:31;44.90;;;22.13;;
8252;SDS011;61313;48.396;10.008;2022-12-18T01:30:57;43.17;;;19.80;;
8252;SDS011;61313;48.396;10.008;2022-12-18T01:33:23;45.83;;;22.20;;
8252;SDS011;61313;48.396;10.008;2022-12-18T01:35:49;53.93;;;22.70;;
8252;SDS011;61313;48.396;10.008;2022-12-18T01:38:15;51.40;;;21.90;;
8252;SDS011;61313;48.396;10.008;2022-12-18T01:40:41;47.07;;;22.70;;
8252;SDS011;61313;48.396;10.008;2022-12-18T01:43:08;56.03;;;21.43;;
8252;SDS011;61313;48.396;10.008;2022-12-18T01:45:34;47.37;;;22.47;;
8252;SDS011;61313;48.396;10.008;2022-12-18T01:48:05;62.80;;;23.67;;
8252;SDS011;61313;48.396;10.008;2022-12-18T01:50:34;45.77;;;22.57;;
8252;SDS011;61313;48.396;10.008;2022-12-18T01:53:17;48.47;;;23.67;;
8252;SDS011;61313;48.396;10.008;2022-12-18T01:56:02;58.90;;;25.27;;
8252;SDS011;61313;48.396;10.008;2022-12-18T02:00:55;47.30;;;21.60;;
8252;SDS011;61313;48.396;10.008;2022-12-18T02:03:21;51.03;;;21.67;;
8252;SDS011;61313;48.396;10.008;2022-12-18T02:08:20;53.70;;;23.17;;
8252;SDS011;61313;48.396;10.008;2022-12-18T02:10:56;48.90;;;24.73;;
8252;SDS011;61313;48.396;10.008;2022-12-18T02:18:40;57.20;;;22.57;;
8252;SDS011;61313;48.396;10.008;2022-12-18T02:26:37;60.77;;;21.53;;
8252;SDS011;61313;48.396;10.008;2022-12-18T02:31:31;51.27;;;24.67;;
8252;SDS011;61313;48.396;10.008;2022-12-18T02:34:01;58.53;;;24.57;;
8252;SDS011;61313;48.396;10.008;2022-12-18T02:36:28;48.97;;;22.53;;
8252;SDS011;61313;48.396;10.008;2022-12-18T02:38:55;42.00;;;22.03;;
8252;SDS011;61313;48.396;10.008;2022-12-18T02:41:23;61.60;;;25.13;;
8252;SDS011;61313;48.396;10.008;2022-12-18T02:44:01;52.40;;;25.37;;
8252;SDS011;61313;48.396;10.008;2022-12-18T02:49:00;50.57;;;24.27;;
8252;SDS011;61313;48.396;10.008;2022-12-18T02:51:29;47.77;;;23.77;;
8252;SDS011;61313;48.396;10.008;2022-12-18T02:53:58;55.30;;;24.50;;
8252;SDS011;61313;48.396;10.008;2022-12-18T02:56:29;47.83;;;22.80;;
8252;SDS011;61313;48.396;10.008;2022-12-18T03:03:55;55.30;;;25.43;;
8252;SDS011;61313;48.396;10.008;2022-12-18T03:06:33;49.87;;;22.47;;
8252;SDS011;61313;48.396;10.008;2022-12-18T03:09:06;49.83;;;21.43;;
8252;SDS011;61313;48.396;10.008;2022-12-18T03:11:33;55.87;;;23.43;;
8252;SDS011;61313;48.396;10.008;2022-12-18T03:14:20;48.53;;;22.47;;
8252;SDS011;61313;48.396;10.008;2022-12-18T03:16:48;49.20;;;23.50;;
8252;SDS011;61313;48.396;10.008;2022-12-18T03:19:15;55.03;;;23.73;;
8252;SDS011;61313;48.396;10.008;2022-12-18T03:21:45;56.93;;;22.87;;
8252;SDS011;61313;48.396;10.008;2022-12-18T03:24:13;52.13;;;23.47;;
8252;SDS011;61313;48.396;10.008;2022-12-18T03:26:40;48.73;;;24.60;;
8252;SDS011;61313;48.396;10.008;2022-12-18T03:29:09;54.93;;;23.60;;
8252;SDS011;61313;48.396;10.008;2022-12-18T03:31:37;53.10;;;24.43;;
8252;SDS011;61313;48.396;10.008;2022-12-18T03:34:09;48.63;;;23.97;;
8252;SDS011;61313;48.396;10.008;2022-12-18T03:36:35;57.60;;;25.43;;
8252;SDS011;61313;48.396;10.008;2022-12-18T03:39:01;62.77;;;25.30;;
8252;SDS011;61313;48.396;10.008;2022-12-18T03:46:27;61.00;;;26.13;;
8252;SDS011;61313;48.396;10.008;2022-12-18T03:49:16;55.33;;;26.13;;
8252;SDS011;61313;48.396;10.008;2022-12-18T03:51:54;54.50;;;23.60;;
8252;SDS011;61313;48.396;10.008;2022-12-18T03:54:23;55.27;;;22.40;;
8252;SDS011;61313;48.396;10.008;2022-12-18T03:56:54;52.50;;;25.33;;
8252;SDS011;61313;48.396;10.008;2022-12-18T03:59:22;60.50;;;26.67;;
8252;SDS011;61313;48.396;10.008;2022-12-18T04:01:49;62.73;;;27.33;;
8252;SDS011;61313;48.396;10.008;2022-12-18T04:04:16;63.17;;;19.73;;
8252;SDS011;61313;48.396;10.008;2022-12-18T04:06:43;69.73;;;23.97;;
8252;SDS011;61313;48.396;10.008;2022-12-18T04:09:11;62.33;;;25.90;;
8252;SDS011;61313;48.396;10.008;2022-12-18T04:11:37;51.60;;;25.17;;
8252;SDS011;61313;48.396;10.008;2022-12-18T04:14:04;70.60;;;26.87;;
8252;SDS011;61313;48.396;10.008;2022-12-18T04:16:30;61.47;;;26.23;;
8252;SDS011;61313;48.396;10.008;2022-12-18T04:18:55;67.57;;;27.97;;
8252;SDS011;61313;48.396;10.008;2022-12-18T04:21:21;62.57;;;27.50;;
8252;SDS011;61313;48.396;10.008;2022-12-18T04:23:47;68.73;;;26.53;;
8252;SDS011;61313;48.396;10.008;2022-12-18T04:26:13;61.00;;;24.80;;
8252;SDS011;61313;48.396;10.008;2022-12-18T04:28:39;47.60;;;21.80;;
8252;SDS011;61313;48.396;10.008;2022-12-18T04:31:04;49.10;;;21.10;;
8252;SDS011;61313;48.396;10.008;2022-12-18T04:33:30;45.23;;;21.97;;
8252;SDS011;61313;48.396;10.008;2022-12-18T04:35:56;48.00;;;23.00;;
8252;SDS011;61313;48.396;10.008;2022-12-18T04:38:22;69.20;;;26.67;;
8252;SDS011;61313;48.396;10.008;2022-12-18T04:40:47;48.57;;;23.80;;
8252;SDS011;61313;48.396;10.008;2022-12-18T04:43:13;56.20;;;25.00;;
8252;SDS011;61313;48.396;10.008;2022-12-18T04:45:39;60.57;;;26.07;;
8252;SDS011;61313;48.396;10.008;2022-12-18T04:48:04;69.63;;;29.57;;
8252;SDS011;61313;48.396;10.008;2022-12-18T04:50:30;62.50;;;25.97;;
8252;SDS011;61313;48.396;10.008;2022-12-18T04:52:56;62.00;;;26.17;;
8252;SDS011;61313;48.396;10.008;2022-12-18T04:55:22;52.50;;;22.80;;
8252;SDS011;61313;48.396;10.008;2022-12-18T04:57:47;66.90;;;24.80;;
8252;SDS011;61313;48.396;10.008;2022-12-18T05:00:13;60.93;;;27.07;;
8252;SDS011;61313;48.396;10.008;2022-12-18T05:02:39;64.33;;;26.60;;
8252;SDS011;61313;48.396;10.008;2022-12-18T05:05:05;66.17;;;27.37;;
8252;SDS011;61313;48.396;10.008;2022-12-18T05:07:31;58.57;;;26.40;;
8252;SDS011;61313;48.396;10.008;2022-12-18T05:09:57;56.63;;;25.40;;
8252;SDS011;61313;48.396;10.008;2022-12-18T05:12:22;61.13;;;27.43;;
8252;SDS011;61313;48.396;10.008;2022-12-18T05:14:48;77.00;;;29.10;;
8252;SDS011;61313;48.396;10.008;2022-12-18T05:17:14;80.60;;;25.50;;
8252;SDS011;61313;48.396;10.008;2022-12-18T05:19:39;55.23;;;24.57;;
8252;SDS011;61313;48.396;10.008;2022-12-18T05:22:05;72.07;;;27.27;;
8252;SDS011;61313;48.396;10.008;2022-12-18T05:24:31;50.47;;;25.30;;
8252;SDS011;61313;48.396;10.008;2022-12-18T05:26:56;49.97;;;24.87;;
8252;SDS011;61313;48.396;10.008;2022-12-18T05:29:22;51.83;;;26.70;;
8252;SDS011;61313;48.396;10.008;2022-12-18T05:31:48;64.83;;;29.27;;
8252;SDS011;61313;48.396;10.008;2022-12-18T05:34:14;61.93;;;28.47;;
8252;SDS011;61313;48.396;10.008;2022-12-18T05:36:39;54.00;;;24.90;;
8252;SDS011;61313;48.396;10.008;2022-12-18T05:39:05;65.60;;;26.87;;
8252;SDS011;61313;48.396;10.008;2022-12-18T05:41:31;59.97;;;26.00;;
8252;SDS011;61313;48.396;10.008;2022-12-18T05:43:57;64.93;;;26.30;;
8252;SDS011;61313;48.396;10.008;2022-12-18T05:46:23;75.43;;;29.07;;
8252;SDS011;61313;48.396;10.008;2022-12-18T05:48:49;63.70;;;29.10;;
8252;SDS011;61313;48.396;10.008;2022-12-18T05:51:17;65.87;;;29.70;;
8252;SDS011;61313;48.396;10.008;2022-12-18T05:53:44;54.33;;;27.03;;
8252;SDS011;61313;48.396;10.008;2022-12-18T05:56:11;74.17;;;29.70;;
8252;SDS011;61313;48.396;10.008;2022-12-18T05:58:42;73.00;;;29.47;;
8252;SDS011;61313;48.396;10.008;2022-12-18T06:01:09;68.10;;;29.00;;
8252;SDS011;61313;48.396;10.008;2022-12-18T06:03:38;69.30;;;28.80;;
8252;SDS011;61313;48.396;10.008;2022-12-18T06:06:04;65.73;;;27.67;;
8252;SDS011;61313;48.396;10.008;2022-12-18T06:08:37;95.33;;;30.60;;
8252;SDS011;61313;48.396;10.008;2022-12-18T06:11:03;69.93;;;31.43;;
8252;SDS011;61313;48.396;10.008;2022-12-18T06:13:28;74.60;;;29.67;;
8252;SDS011;61313;48.396;10.008;2022-12-18T06:15:54;60.07;;;27.70;;
8252;SDS011;61313;48.396;10.008;2022-12-18T06:18:20;75.17;;;29.70;;
8252;SDS011;61313;48.396;10.008;2022-12-18T06:20:53;56.57;;;25.73;;
8252;SDS011;61313;48.396;10.008;2022-12-18T06:23:22;66.53;;;27.33;;
8252;SDS011;61313;48.396;10.008;2022-12-18T06:25:48;63.97;;;26.23;;
8252;SDS011;61313;48.396;10.008;2022-12-18T06:28:14;74.80;;;27.60;;
8252;SDS011;61313;48.396;10.008;2022-12-18T06:30:39;68.87;;;26.40;;
8252;SDS011;61313;48.396;10.008;2022-12-18T06:33:08;74.90;;;28.60;;
8252;SDS011;61313;48.396;10.008;2022-12-18T06:35:34;72.93;;;29.67;;
8252;SDS011;61313;48.396;10.008;2022-12-18T06:38:00;50.60;;;25.63;;
8252;SDS011;61313;48.396;10.008;2022-12-18T06:40:26;63.80;;;27.20;;
8252;SDS011;61313;48.396;10.008;2022-12-18T06:42:52;61.10;;;26.83;;
8252;SDS011;61313;48.396;10.008;2022-12-18T06:45:18;78.20;;;29.40;;
8252;SDS011;61313;48.396;10.008;2022-12-18T06:47:43;62.97;;;27.60;;
8252;SDS011;61313;48.396;10.008;2022-12-18T06:50:09;62.57;;;26.57;;
8252;SDS011;61313;48.396;10.008;2022-12-18T06:52:35;64.47;;;27.90;;
8252;SDS011;61313;48.396;10.008;2022-12-18T06:55:01;74.90;;;31.17;;
8252;SDS011;61313;48.396;10.008;2022-12-18T06:57:27;79.60;;;29.50;;
8252;SDS011;61313;48.396;10.008;2022-12-18T06:59:53;77.07;;;27.87;;
8252;SDS011;61313;48.396;10.008;2022-12-18T07:02:19;62.67;;;28.10;;
8252;SDS011;61313;48.396;10.008;2022-12-18T07:04:45;80.70;;;31.17;;
8252;SDS011;61313;48.396;10.008;2022-12-18T07:07:10;86.00;;;30.77;;
8252;SDS011;61313;48.396;10.008;2022-12-18T07:09:36;62.07;;;28.90;;
8252;SDS011;61313;48.396;10.008;2022-12-18T07:12:02;68.90;;;28.50;;
8252;SDS011;61313;48.396;10.008;2022-12-18T07:14:27;103.43;;;32.33;;
8252;SDS011;61313;48.396;10.008;2022-12-18T07:16:53;63.73;;;28.50;;
8252;SDS011;61313;48.396;10.008;2022-12-18T07:19:19;73.37;;;27.07;;
8252;SDS011;61313;48.396;10.008;2022-12-18T07:21:44;78.87;;;30.73;;
8252;SDS011;61313;48.396;10.008;2022-12-18T07:24:11;78.47;;;28.47;;
8252;SDS011;61313;48.396;10.008;2022-12-18T07:26:37;61.27;;;28.30;;
8252;SDS011;61313;48.396;10.008;2022-12-18T07:29:02;68.47;;;28.20;;
8252;SDS011;61313;48.396;10.008;2022-12-18T07:31:28;77.87;;;26.93;;
8252;SDS011;61313;48.396;10.008;2022-12-18T07:33:54;60.63;;;24.73;;
8252;SDS011;61313;48.396;10.008;2022-12-18T07:36:19;67.67;;;26.60;;
8252;SDS011;61313;48.396;10.008;2022-12-18T07:38:49;69.40;;;30.17;;
8252;SDS011;61313;48.396;10.008;2022-12-18T07:41:16;60.47;;;27.40;;
8252;SDS011;61313;48.396;10.008;2022-12-18T07:43:43;68.23;;;30.10;;
8252;SDS011;61313;48.396;10.008;2022-12-18T07:46:10;52.83;;;24.43;;
8252;SDS011;61313;48.396;10.008;2022-12-18T07:48:38;55.33;;;29.57;;
8252;SDS011;61313;48.396;10.008;2022-12-18T07:51:05;57.40;;;29.27;;
8252;SDS011;61313;48.396;10.008;2022-12-18T07:53:31;60.63;;;29.27;;
8252;SDS011;61313;48.396;10.008;2022-12-18T07:55:58;61.53;;;26.87;;
8252;SDS011;61313;48.396;10.008;2022-12-18T07:58:25;83.67;;;27.63;;
8252;SDS011;61313;48.396;10.008;2022-12-18T08:00:51;65.93;;;28.83;;
8252;SDS011;61313;48.396;10.008;2022-12-18T08:03:17;60.37;;;27.27;;
8252;SDS011;61313;48.396;10.008;2022-12-18T08:05:43;63.10;;;27.73;;
8252;SDS011;61313;48.396;10.008;2022-12-18T08:08:09;71.17;;;29.67;;
8252;SDS011;61313;48.396;10.008;2022-12-18T08:10:35;55.90;;;26.77;;
8252;SDS011;61313;48.396;10.008;2022-12-18T08:13:02;63.07;;;25.83;;
8252;SDS011;61313;48.396;10.008;2022-12-18T08:15:27;54.70;;;27.67;;
8252;SDS011;61313;48.396;10.008;2022-12-18T08:17:56;58.00;;;26.27;;
8252;SDS011;61313;48.396;10.008;2022-12-18T08:20:22;61.70;;;27.83;;
8252;SDS011;61313;48.396;10.008;2022-12-18T08:22:47;54.10;;;25.77;;
8252;SDS011;61313;48.396;10.008;2022-12-18T08:25:13;57.03;;;26.70;;
8252;SDS011;61313;48.396;10.008;2022-12-18T08:27:39;70.17;;;27.00;;
8252;SDS011;61313;48.396;10.008;2022-12-18T08:30:05;58.23;;;25.10;;
8252;SDS011;61313;48.396;10.008;2022-12-18T08:32:31;56.03;;;26.93;;
8252;SDS011;61313;48.396;10.008;2022-12-18T08:34:57;55.00;;;24.57;;
8252;SDS011;61313;48.396;10.008;2022-12-18T08:37:23;53.77;;;25.77;;
8252;SDS011;61313;48.396;10.008;2022-12-18T08:39:49;47.10;;;26.50;;
8252;SDS011;61313;48.396;10.008;2022-12-18T08:42:15;49.90;;;24.20;;
8252;SDS011;61313;48.396;10.008;2022-12-18T08:44:59;56.27;;;25.30;;
8252;SDS011;61313;48.396;10.008;2022-12-18T08:47:25;51.90;;;25.03;;
8252;SDS011;61313;48.396;10.008;2022-12-18T08:49:51;43.40;;;22.40;;
8252;SDS011;61313;48.396;10.008;2022-12-18T08:52:16;57.07;;;23.93;;
8252;SDS011;61313;48.396;10.008;2022-12-18T08:54:42;54.47;;;24.87;;
8252;SDS011;61313;48.396;10.008;2022-12-18T08:57:08;52.83;;;24.97;;
8252;SDS011;61313;48.396;10.008;2022-12-18T08:59:33;40.17;;;22.50;;
8252;SDS011;61313;48.396;10.008;2022-12-18T09:01:59;51.60;;;23.03;;
8252;SDS011;61313;48.396;10.008;2022-12-18T09:04:25;50.20;;;22.70;;
8252;SDS011;61313;48.396;10.008;2022-12-18T09:06:50;48.07;;;25.53;;
8252;SDS011;61313;48.396;10.008;2022-12-18T09:09:16;48.70;;;23.17;;
8252;SDS011;61313;48.396;10.008;2022-12-18T09:11:42;41.90;;;22.93;;
8252;SDS011;61313;48.396;10.008;2022-12-18T09:14:08;43.67;;;20.73;;
8252;SDS011;61313;48.396;10.008;2022-12-18T09:16:34;43.30;;;21.47;;
8252;SDS011;61313;48.396;10.008;2022-12-18T09:19:00;44.60;;;20.83;;
8252;SDS011;61313;48.396;10.008;2022-12-18T09:21:28;47.50;;;21.80;;
8252;SDS011;61313;48.396;10.008;2022-12-18T09:23:56;43.47;;;21.00;;
8252;SDS011;61313;48.396;10.008;2022-12-18T09:26:22;46.20;;;20.13;;
8252;SDS011;61313;48.396;10.008;2022-12-18T09:28:49;38.00;;;21.37;;
8252;SDS011;61313;48.396;10.008;2022-12-18T09:31:16;48.23;;;22.00;;
8252;SDS011;61313;48.396;10.008;2022-12-18T09:33:43;40.83;;;20.30;;
8252;SDS011;61313;48.396;10.008;2022-12-18T09:36:11;39.53;;;19.27;;
8252;SDS011;61313;48.396;10.008;2022-12-18T09:38:38;48.23;;;20.73;;
8252;SDS011;61313;48.396;10.008;2022-12-18T09:44:01;41.83;;;21.07;;
8252;SDS011;61313;48.396;10.008;2022-12-18T09:46:59;38.27;;;17.97;;
8252;SDS011;61313;48.396;10.008;2022-12-18T09:49:43;36.23;;;17.60;;
8252;SDS011;61313;48.396;10.008;2022-12-18T09:55:00;39.17;;;17.77;;
8252;SDS011;61313;48.396;10.008;2022-12-18T09:57:34;40.87;;;19.30;;
8252;SDS011;61313;48.396;10.008;2022-12-18T10:02:44;36.13;;;17.10;;
8252;SDS011;61313;48.396;10.008;2022-12-18T10:05:16;36.00;;;19.57;;
8252;SDS011;61313;48.396;10.008;2022-12-18T10:10:43;36.57;;;18.60;;
8252;SDS011;61313;48.396;10.008;2022-12-18T10:21:10;65.80;;;20.87;;
8252;SDS011;61313;48.396;10.008;2022-12-18T10:23:53;36.37;;;18.67;;
8252;SDS011;61313;48.396;10.008;2022-12-18T10:26:40;36.10;;;17.30;;
8252;SDS011;61313;48.396;10.008;2022-12-18T10:29:13;36.27;;;19.37;;
8252;SDS011;61313;48.396;10.008;2022-12-18T10:31:40;38.27;;;17.93;;
8252;SDS011;61313;48.396;10.008;2022-12-18T10:34:10;30.13;;;17.20;;
8252;SDS011;61313;48.396;10.008;2022-12-18T10:36:36;33.50;;;18.07;;
8252;SDS011;61313;48.396;10.008;2022-12-18T10:39:16;35.47;;;18.63;;
8252;SDS011;61313;48.396;10.008;2022-12-18T10:41:47;40.23;;;19.77;;
8252;SDS011;61313;48.396;10.008;2022-12-18T10:46:44;34.67;;;16.60;;
8252;SDS011;61313;48.396;10.008;2022-12-18T10:49:27;34.87;;;18.60;;
8252;SDS011;61313;48.396;10.008;2022-12-18T10:54:49;48.97;;;20.67;;
8252;SDS011;61313;48.396;10.008;2022-12-18T10:59:57;49.37;;;19.57;;
8252;SDS011;61313;48.396;10.008;2022-12-18T11:02:28;80.47;;;26.13;;
8252;SDS011;61313;48.396;10.008;2022-12-18T11:05:01;146.43;;;28.00;;
8252;SDS011;61313;48.396;10.008;2022-12-18T11:07:47;42.37;;;17.27;;
8252;SDS011;61313;48.396;10.008;2022-12-18T11:10:18;34.00;;;17.57;;
8252;SDS011;61313;48.396;10.008;2022-12-18T11:12:45;33.13;;;18.03;;
8252;SDS011;61313;48.396;10.008;2022-12-18T11:15:15;36.67;;;18.50;;
8252;SDS011;61313;48.396;10.008;2022-12-18T11:17:49;35.63;;;17.17;;
8252;SDS011;61313;48.396;10.008;2022-12-18T11:23:00;29.80;;;16.40;;
8252;SDS011;61313;48.396;10.008;2022-12-18T11:25:27;28.77;;;15.50;;
8252;SDS011;61313;48.396;10.008;2022-12-18T11:27:55;38.90;;;16.83;;
8252;SDS011;61313;48.396;10.008;2022-12-18T11:32:54;32.27;;;16.53;;
8252;SDS011;61313;48.396;10.008;2022-12-18T11:35:33;32.50;;;16.47;;
8252;SDS011;61313;48.396;10.008;2022-12-18T11:38:06;37.97;;;19.07;;
8252;SDS011;61313;48.396;10.008;2022-12-18T11:40:50;32.70;;;16.30;;
8252;SDS011;61313;48.396;10.008;2022-12-18T11:43:33;37.17;;;18.60;;
8252;SDS011;61313;48.396;10.008;2022-12-18T11:46:07;31.20;;;16.30;;
8252;SDS011;61313;48.396;10.008;2022-12-18T11:49:11;33.50;;;16.30;;
8252;SDS011;61313;48.396;10.008;2022-12-18T11:51:52;27.77;;;14.33;;
8252;SDS011;61313;48.396;10.008;2022-12-18T11:54:21;36.67;;;17.27;;
8252;SDS011;61313;48.396;10.008;2022-12-18T11:56:51;51.13;;;19.17;;
8252;SDS011;61313;48.396;10.008;2022-12-18T12:13:23;28.93;;;15.20;;
8252;SDS011;61313;48.396;10.008;2022-12-18T12:16:22;28.97;;;15.97;;
8252;SDS011;61313;48.396;10.008;2022-12-18T12:19:12;27.07;;;15.63;;
8252;SDS011;61313;48.396;10.008;2022-12-18T12:26:49;34.30;;;15.83;;
8252;SDS011;61313;48.396;10.008;2022-12-18T12:30:02;28.67;;;15.50;;
8252;SDS011;61313;48.396;10.008;2022-12-18T12:34:49;33.90;;;17.10;;
8252;SDS011;61313;48.396;10.008;2022-12-18T12:37:38;29.50;;;15.30;;
8252;SDS011;61313;48.396;10.008;2022-12-18T12:40:10;36.20;;;16.33;;
8252;SDS011;61313;48.396;10.008;2022-12-18T12:42:40;36.03;;;16.57;;
8252;SDS011;61313;48.396;10.008;2022-12-18T12:48:22;31.57;;;15.50;;
8252;SDS011;61313;48.396;10.008;2022-12-18T12:50:53;37.73;;;15.93;;
8252;SDS011;61313;48.396;10.008;2022-12-18T12:53:22;25.97;;;13.37;;
8252;SDS011;61313;48.396;10.008;2022-12-18T12:55:52;27.87;;;13.50;;
8252;SDS011;61313;48.396;10.008;2022-12-18T13:01:17;27.10;;;15.20;;
8252;SDS011;61313;48.396;10.008;2022-12-18T13:06:47;49.33;;;17.30;;
8252;SDS011;61313;48.396;10.008;2022-12-18T13:09:24;57.37;;;20.90;;
8252;SDS011;61313;48.396;10.008;2022-12-18T13:11:49;44.17;;;17.97;;
8252;SDS011;61313;48.396;10.008;2022-12-18T13:19:48;34.97;;;15.90;;
8252;SDS011;61313;48.396;10.008;2022-12-18T13:24:53;31.13;;;16.37;;
8252;SDS011;61313;48.396;10.008;2022-12-18T13:43:43;29.17;;;15.80;;
8252;SDS011;61313;48.396;10.008;2022-12-18T13:48:49;37.77;;;16.80;;
8252;SDS011;61313;48.396;10.008;2022-12-18T13:51:16;31.63;;;15.70;;
8252;SDS011;61313;48.396;10.008;2022-12-18T13:53:46;26.60;;;14.47;;
8252;SDS011;61313;48.396;10.008;2022-12-18T13:56:21;34.30;;;16.90;;
8252;SDS011;61313;48.396;10.008;2022-12-18T14:01:47;36.50;;;14.43;;
8252;SDS011;61313;48.396;10.008;2022-12-18T14:04:25;35.10;;;16.80;;
8252;SDS011;61313;48.396;10.008;2022-12-18T14:06:56;35.53;;;17.40;;
8252;SDS011;61313;48.396;10.008;2022-12-18T14:09:35;39.53;;;15.07;;
8252;SDS011;61313;48.396;10.008;2022-12-18T14:12:05;35.73;;;15.07;;
8252;SDS011;61313;48.396;10.008;2022-12-18T14:14:50;39.37;;;15.60;;
8252;SDS011;61313;48.396;10.008;2022-12-18T14:17:17;35.03;;;16.03;;
8252;SDS011;61313;48.396;10.008;2022-12-18T14:19:43;40.03;;;17.20;;
8252;SDS011;61313;48.396;10.008;2022-12-18T14:22:18;29.43;;;15.60;;
8252;SDS011;61313;48.396;10.008;2022-12-18T14:27:53;33.50;;;16.73;;
8252;SDS011;61313;48.396;10.008;2022-12-18T14:30:32;31.30;;;14.83;;
8252;SDS011;61313;48.396;10.008;2022-12-18T14:35:26;31.83;;;16.33;;
8252;SDS011;61313;48.396;10.008;2022-12-18T14:37:52;31.13;;;15.20;;
8252;SDS011;61313;48.396;10.008;2022-12-18T14:40:32;42.73;;;19.47;;
8252;SDS011;61313;48.396;10.008;2022-12-18T14:42:57;26.87;;;15.30;;
8252;SDS011;61313;48.396;10.008;2022-12-18T14:45:36;34.47;;;16.00;;
8252;SDS011;61313;48.396;10.008;2022-12-18T14:48:06;33.70;;;15.93;;
8252;SDS011;61313;48.396;10.008;2022-12-18T14:50:56;31.23;;;16.07;;
8252;SDS011;61313;48.396;10.008;2022-12-18T14:53:48;57.20;;;17.13;;
8252;SDS011;61313;48.396;10.008;2022-12-18T14:56:22;39.20;;;16.43;;
8252;SDS011;61313;48.396;10.008;2022-12-18T14:58:54;31.43;;;13.53;;
8252;SDS011;61313;48.396;10.008;2022-12-18T15:01:37;48.20;;;16.90;;
8252;SDS011;61313;48.396;10.008;2022-12-18T15:07:08;34.43;;;16.13;;
8252;SDS011;61313;48.396;10.008;2022-12-18T15:09:43;34.77;;;16.03;;
8252;SDS011;61313;48.396;10.008;2022-12-18T15:12:35;36.17;;;16.73;;
8252;SDS011;61313;48.396;10.008;2022-12-18T15:15:04;37.33;;;16.20;;
8252;SDS011;61313;48.396;10.008;2022-12-18T15:17:30;44.43;;;16.70;;
8252;SDS011;61313;48.396;10.008;2022-12-18T15:20:00;35.93;;;15.83;;
8252;SDS011;61313;48.396;10.008;2022-12-18T15:22:29;32.73;;;14.27;;
8252;SDS011;61313;48.396;10.008;2022-12-18T15:24:57;28.47;;;14.77;;
8252;SDS011;61313;48.396;10.008;2022-12-18T15:27:28;31.03;;;15.37;;
8252;SDS011;61313;48.396;10.008;2022-12-18T15:30:00;44.63;;;16.77;;
8252;SDS011;61313;48.396;10.008;2022-12-18T15:32:26;29.93;;;16.90;;
8252;SDS011;61313;48.396;10.008;2022-12-18T15:35:01;29.60;;;15.37;;
8252;SDS011;61313;48.396;10.008;2022-12-18T15:37:39;33.17;;;15.53;;
8252;SDS011;61313;48.396;10.008;2022-12-18T15:40:06;38.17;;;14.17;;
8252;SDS011;61313;48.396;10.008;2022-12-18T15:42:36;59.60;;;19.50;;
8252;SDS011;61313;48.396;10.008;2022-12-18T15:45:20;36.87;;;17.77;;
8252;SDS011;61313;48.396;10.008;2022-12-18T15:47:46;44.03;;;17.87;;
8252;SDS011;61313;48.396;10.008;2022-12-18T15:50:12;30.57;;;14.60;;
8252;SDS011;61313;48.396;10.008;2022-12-18T15:52:41;34.73;;;17.20;;
8252;SDS011;61313;48.396;10.008;2022-12-18T15:55:16;24.33;;;14.03;;
8252;SDS011;61313;48.396;10.008;2022-12-18T15:58:03;36.73;;;15.40;;
8252;SDS011;61313;48.396;10.008;2022-12-18T16:00:33;32.93;;;16.30;;
8252;SDS011;61313;48.396;10.008;2022-12-18T16:03:01;28.90;;;14.10;;
8252;SDS011;61313;48.396;10.008;2022-12-18T16:05:28;24.87;;;14.50;;
8252;SDS011;61313;48.396;10.008;2022-12-18T16:07:54;27.50;;;15.00;;
8252;SDS011;61313;48.396;10.008;2022-12-18T16:10:20;34.87;;;15.40;;
8252;SDS011;61313;48.396;10.008;2022-12-18T16:12:46;35.33;;;16.10;;
8252;SDS011;61313;48.396;10.008;2022-12-18T16:15:13;28.90;;;13.83;;
8252;SDS011;61313;48.396;10.008;2022-12-18T16:17:40;34.17;;;15.87;;
8252;SDS011;61313;48.396;10.008;2022-12-18T16:20:11;34.60;;;14.90;;
8252;SDS011;61313;48.396;10.008;2022-12-18T16:22:40;28.63;;;15.80;;
8252;SDS011;61313;48.396;10.008;2022-12-18T16:25:30;28.00;;;14.17;;
8252;SDS011;61313;48.396;10.008;2022-12-18T16:27:55;32.27;;;16.97;;
8252;SDS011;61313;48.396;10.008;2022-12-18T16:30:22;30.27;;;15.63;;
8252;SDS011;61313;48.396;10.008;2022-12-18T16:32:52;35.27;;;18.10;;
8252;SDS011;61313;48.396;10.008;2022-12-18T16:35:21;37.50;;;16.97;;
8252;SDS011;61313;48.396;10.008;2022-12-18T16:37:49;32.93;;;16.60;;
8252;SDS011;61313;48.396;10.008;2022-12-18T16:40:16;27.60;;;15.47;;
8252;SDS011;61313;48.396;10.008;2022-12-18T16:42:43;31.93;;;16.17;;
8252;SDS011;61313;48.396;10.008;2022-12-18T16:45:16;35.57;;;16.00;;